Time;durP1;ratioP1;P1;durP2;ratioP2;P2;SDS_P1;SDS_P2;PMS_P1;PMS_P2;Temp;Humidity;BMP_temperature;BMP_pressure;BME280_temperature;BME280_humidity;BME280_pressure;Samples;Min_cycle;Max_cycle;Signal;HPM_P1;HPM_P2
2022/09/07 00:01:50;;;;;;;12.23;6.08;;;;;;;3.86;100.00;100903.70;1673373;85;21655;-67
2022/09/07 00:04:17;;;;;;;9.98;5.92;;;;;;;3.86;100.00;100897.63;1673383;85;21178;-67
2022/09/07 00:06:44;;;;;;;9.25;5.70;;;;;;;3.84;100.00;100900.22;1662880;86;21595;-67
2022/09/07 00:09:11;;;;;;;10.60;5.70;;;;;;;3.83;100.00;100894.58;1668198;86;21111;-67
2022/09/07 00:11:38;;;;;;;11.35;5.80;;;;;;;3.83;100.00;100897.19;1668260;86;21048;-66
2022/09/07 00:14:06;;;;;;;11.65;5.60;;;;;;;3.82;100.00;100900.67;1668206;86;21135;-66
2022/09/07 00:16:34;;;;;;;11.48;5.85;;;;;;;3.80;100.00;100899.80;1668411;86;21060;-66
2022/09/07 00:19:02;;;;;;;11.25;6.30;;;;;;;3.77;100.00;100900.66;1668548;86;21120;-66
2022/09/07 00:21:30;;;;;;;13.38;6.58;;;;;;;3.76;100.00;100900.64;1668327;86;21541;-66
2022/09/07 00:23:57;;;;;;;10.15;5.87;;;;;;;3.77;100.00;100899.77;1668404;86;21556;-68
2022/09/07 00:26:26;;;;;;;10.35;5.72;;;;;;;3.76;100.00;100894.13;1668137;86;21068;-66
2022/09/07 00:28:59;;;;;;;13.75;5.95;;;;;;;3.73;100.00;100901.51;1663465;85;21040;-65
2022/09/07 00:31:26;;;;;;;11.05;6.05;;;;;;;3.73;100.00;100888.92;1660431;86;21089;-65
2022/09/07 00:33:52;;;;;;;12.93;6.53;;;;;;;3.75;100.00;100896.28;1660426;85;21185;-66
2022/09/07 00:36:20;;;;;;;9.80;5.75;;;;;;;3.77;100.00;100890.64;1660444;86;21096;-67
2022/09/07 00:38:46;;;;;;;12.20;6.22;;;;;;;3.76;100.00;100892.83;1660243;86;21061;-65
2022/09/07 00:41:13;;;;;;;12.35;6.80;;;;;;;3.73;100.00;100890.22;1660486;86;21089;-65
2022/09/07 00:43:43;;;;;;;10.60;7.03;;;;;;;3.73;100.00;100893.69;1660484;86;21541;-66
2022/09/07 00:46:20;;;;;;;9.40;5.73;;;;;;;3.74;100.00;100891.95;1660758;86;21053;-67
2022/09/07 00:49:07;;;;;;;16.45;7.75;;;;;;;3.75;100.00;100893.27;1660618;86;21055;-66
2022/09/07 00:51:48;;;;;;;14.53;7.20;;;;;;;3.73;100.00;100888.92;1660456;86;21127;-65
2022/09/07 00:54:19;;;;;;;16.82;7.65;;;;;;;3.68;100.00;100886.30;1660000;86;21144;-66
2022/09/07 00:56:46;;;;;;;16.15;7.75;;;;;;;3.64;100.00;100887.15;1660412;86;21259;-66
2022/09/07 00:59:14;;;;;;;14.53;7.67;;;;;;;3.62;100.00;100887.57;1660539;86;21072;-66
2022/09/07 01:01:40;;;;;;;15.70;6.92;;;;;;;3.61;100.00;100880.61;1660273;86;21073;-66
2022/09/07 01:04:07;;;;;;;17.50;6.85;;;;;;;3.52;100.00;100877.56;1643224;87;21066;-66
2022/09/07 01:06:36;;;;;;;10.38;6.70;;;;;;;3.49;100.00;100876.23;1643234;87;21130;-65
2022/09/07 01:09:15;;;;;;;16.48;7.80;;;;;;;3.47;100.00;100875.34;1660535;86;21900;-67
2022/09/07 01:11:49;;;;;;;11.00;7.15;;;;;;;3.47;100.00;100874.48;1660296;86;21124;-67
2022/09/07 01:14:13;;;;;;;13.18;7.97;;;;;;;3.44;100.00;100868.83;1659586;86;21086;-66
2022/09/07 01:17:08;;;;;;;13.65;7.10;;;;;;;3.43;100.00;100876.22;1632158;87;21530;-64
2022/09/07 01:19:48;;;;;;;12.88;7.10;;;;;;;3.42;100.00;100870.56;1660633;86;21152;-66
2022/09/07 01:22:50;;;;;;;17.62;8.93;;;;;;;3.41;100.00;100872.73;1660639;86;21167;-66
2022/09/07 01:25:31;;;;;;;16.52;9.10;;;;;;;3.36;100.00;100870.11;1620469;86;21540;-65
2022/09/07 01:28:22;;;;;;;20.57;9.53;;;;;;;3.35;100.00;100870.09;1660582;85;21085;-66
2022/09/07 01:30:56;;;;;;;17.60;9.83;;;;;;;3.35;100.00;100872.27;1660562;86;21048;-66
2022/09/07 01:33:46;;;;;;;15.88;8.23;;;;;;;3.36;100.00;100861.44;1660416;85;21117;-66
2022/09/07 01:36:33;;;;;;;11.90;6.10;;;;;;;3.31;100.00;100857.92;1663037;86;21234;-65
2022/09/07 01:39:02;;;;;;;14.10;6.85;;;;;;;3.33;100.00;100869.22;1660355;86;21080;-65
2022/09/07 01:41:55;;;;;;;16.90;8.80;;;;;;;3.33;100.00;100856.20;1660055;86;21790;-65
2022/09/07 01:44:45;;;;;;;16.67;9.00;;;;;;;3.32;100.00;100857.08;1621658;87;21554;-66
2022/09/07 01:47:37;;;;;;;16.80;9.13;;;;;;;3.32;100.00;100856.64;1643582;87;21404;-65
2022/09/07 01:50:22;;;;;;;15.18;7.50;;;;;;;3.28;100.00;100850.11;1643318;87;21874;-67
2022/09/07 01:53:03;;;;;;;15.72;7.35;;;;;;;3.25;100.00;100852.27;1643307;87;21074;-65
2022/09/07 01:55:37;;;;;;;17.85;9.00;;;;;;;3.23;100.00;100851.83;1662355;86;21162;-64
2022/09/07 01:58:29;;;;;;;21.55;11.00;;;;;;;3.24;100.00;100846.61;1662554;86;21587;-65
2022/09/07 02:01:06;;;;;;;19.50;10.88;;;;;;;3.22;100.00;100847.47;1615575;87;21173;-66
2022/09/07 02:03:47;;;;;;;22.98;11.75;;;;;;;3.21;100.00;100841.41;1599628;89;22432;-66
2022/09/07 02:06:22;;;;;;;18.00;9.70;;;;;;;3.20;100.00;100843.98;1633028;86;21118;-65
2022/09/07 02:08:56;;;;;;;21.12;11.00;;;;;;;3.17;100.00;100843.98;1633268;87;21068;-66
2022/09/07 02:11:35;;;;;;;21.02;11.12;;;;;;;3.11;100.00;100843.09;1616933;88;21093;-65
2022/09/07 02:14:10;;;;;;;23.80;12.15;;;;;;;3.09;100.00;100834.41;1616414;88;21127;-65
2022/09/07 02:16:49;;;;;;;20.77;12.35;;;;;;;3.10;100.00;100842.64;1633696;87;21104;-66
2022/09/07 02:19:16;;;;;;;23.87;12.82;;;;;;;3.09;100.00;100844.82;1633553;87;21096;-65
2022/09/07 02:21:49;;;;;;;28.95;14.33;;;;;;;3.11;100.00;100846.14;1633702;87;21109;-67
2022/09/07 02:24:24;;;;;;;26.02;13.50;;;;;;;3.09;100.00;100842.22;1605976;89;21071;-66
2022/09/07 02:26:51;;;;;;;24.10;13.08;;;;;;;3.05;100.00;100839.16;1632573;87;21084;-66
2022/09/07 02:29:19;;;;;;;19.87;12.15;;;;;;;3.03;100.00;100839.57;1633452;86;21251;-66
2022/09/07 02:31:46;;;;;;;26.30;13.18;;;;;;;3.04;100.00;100836.56;1633487;87;21080;-65
2022/09/07 02:34:13;;;;;;;22.87;11.43;;;;;;;3.05;100.00;100837.85;1633531;87;21076;-66
2022/09/07 02:36:44;;;;;;;23.22;12.28;;;;;;;3.00;100.00;100830.46;1633367;87;21088;-65
2022/09/07 02:39:11;;;;;;;22.50;11.12;;;;;;;2.98;100.00;100834.78;1633520;87;21044;-65
2022/09/07 02:41:41;;;;;;;20.45;11.22;;;;;;;3.01;100.00;100840.43;1633397;87;21304;-67
2022/09/07 02:44:18;;;;;;;20.43;9.63;;;;;;;3.00;100.00;100834.36;1607267;89;21549;-65
2022/09/07 02:46:56;;;;;;;24.40;12.63;;;;;;;2.96;100.00;100832.60;1633594;87;21092;-66
2022/09/07 02:49:46;;;;;;;23.45;12.00;;;;;;;2.92;100.00;100842.55;1633564;87;21073;-66
2022/09/07 02:52:18;;;;;;;23.20;12.90;;;;;;;2.91;100.00;100844.72;1633901;87;21072;-66
2022/09/07 02:55:20;;;;;;;29.18;13.25;;;;;;;2.90;100.00;100840.39;1647468;86;21564;-66
2022/09/07 02:58:07;;;;;;;26.93;13.20;;;;;;;2.90;100.00;100842.56;1662774;86;21072;-65
2022/09/07 03:00:38;;;;;;;28.75;12.50;;;;;;;2.88;100.00;100839.52;1633291;87;21078;-65
2022/09/07 03:03:26;;;;;;;24.18;13.38;;;;;;;2.89;100.00;100838.20;1660812;86;21580;-65
2022/09/07 03:05:59;;;;;;;26.90;14.10;;;;;;;2.86;100.00;100838.62;1660590;85;21816;-65
2022/09/07 03:11:16;;;;;;;28.20;14.73;;;;;;;2.84;100.00;100839.05;1781959;79;25517;-64
2022/09/07 03:13:42;;;;;;;27.27;13.90;;;;;;;2.87;100.00;100837.75;1748068;82;21592;-66
2022/09/07 03:16:14;;;;;;;22.70;12.10;;;;;;;2.86;100.00;100832.98;1748221;82;21140;-66
2022/09/07 03:18:41;;;;;;;29.32;14.20;;;;;;;2.86;100.00;100831.69;1748308;82;21545;-66
2022/09/07 03:21:08;;;;;;;23.50;10.60;;;;;;;2.87;100.00;100836.02;1748154;82;21012;-65
2022/09/07 03:23:36;;;;;;;18.37;10.35;;;;;;;2.86;100.00;100829.52;1748175;82;20977;-66
2022/09/07 03:26:04;;;;;;;22.95;12.75;;;;;;;2.87;100.00;100833.41;1748033;82;21589;-67
2022/09/07 03:28:30;;;;;;;24.95;12.63;;;;;;;2.89;100.00;100833.43;1748113;82;21774;-66
2022/09/07 03:30:58;;;;;;;25.72;12.28;;;;;;;2.89;100.00;100834.73;1747920;82;21095;-66
2022/09/07 03:33:24;;;;;;;28.40;13.95;;;;;;;2.88;100.00;100830.41;1747843;82;21020;-66
2022/09/07 03:36:00;;;;;;;27.37;14.50;;;;;;;2.89;100.00;100831.70;1747932;82;21104;-65
2022/09/07 03:38:26;;;;;;;29.72;15.35;;;;;;;2.91;100.00;100831.72;1748267;81;21097;-65
2022/09/07 03:41:01;;;;;;;29.32;14.58;;;;;;;2.96;100.00;100834.34;1748086;82;21243;-66
2022/09/07 03:43:28;;;;;;;29.77;15.85;;;;;;;2.98;100.00;100828.28;1748004;82;21061;-66
2022/09/07 03:46:04;;;;;;;27.67;15.08;;;;;;;2.99;100.00;100833.05;1748199;82;21000;-66
2022/09/07 03:48:33;;;;;;;31.33;16.35;;;;;;;3.03;100.00;100833.50;1717347;82;21042;-66
2022/09/07 03:51:05;;;;;;;31.33;15.50;;;;;;;3.04;100.00;100828.32;1747884;82;21556;-68
2022/09/07 03:53:33;;;;;;;30.80;15.85;;;;;;;3.06;100.00;100831.80;1747722;82;21630;-67
2022/09/07 03:56:06;;;;;;;25.37;13.22;;;;;;;3.11;100.00;100824.88;1747794;81;21093;-68
2022/09/07 03:58:34;;;;;;;26.05;13.32;;;;;;;3.17;100.00;100827.06;1747699;82;21526;-68
2022/09/07 04:01:08;;;;;;;33.33;19.25;;;;;;;3.22;100.00;100827.55;1747731;82;21022;-66
2022/09/07 04:03:35;;;;;;;37.65;19.65;;;;;;;3.56;100.00;100832.41;1747927;82;21141;-67
2022/09/07 04:06:02;;;;;;;35.92;18.87;;;;;;;4.16;100.00;100832.95;1747952;82;21153;-67
2022/09/07 04:08:32;;;;;;;34.40;19.45;;;;;;;4.80;100.00;100830.28;1747841;82;21049;-67
2022/09/07 04:11:00;;;;;;;44.05;19.40;;;;;;;5.51;100.00;100831.34;1748443;82;21089;-67
2022/09/07 04:13:27;;;;;;;34.03;17.70;;;;;;;6.21;100.00;100836.61;1748929;81;21030;-67
2022/09/07 04:15:53;;;;;;;32.28;17.65;;;;;;;6.91;100.00;100831.14;1749098;82;21529;-68
2022/09/07 04:18:21;;;;;;;30.85;17.35;;;;;;;7.57;100.00;100829.49;1748932;82;22322;-67
2022/09/07 04:20:51;;;;;;;34.67;18.10;;;;;;;8.15;100.00;100827.77;1748763;81;21022;-68
2022/09/07 04:23:18;;;;;;;32.70;19.15;;;;;;;8.71;100.00;100825.95;1748521;82;21034;-67
2022/09/07 04:25:50;;;;;;;31.85;18.52;;;;;;;9.30;100.00;100824.38;1748371;81;21514;-68
2022/09/07 04:28:18;;;;;;;36.48;18.02;;;;;;;9.86;100.00;100826.67;1748222;82;21045;-68
2022/09/07 04:30:45;;;;;;;28.73;17.65;;;;;;;10.40;98.37;100830.66;1748480;82;21092;-66
2022/09/07 04:33:12;;;;;;;30.75;18.07;;;;;;;10.91;94.35;100827.13;1748130;81;21546;-67
2022/09/07 04:35:40;;;;;;;30.17;17.85;;;;;;;11.40;90.26;100820.92;1748417;82;21085;-67
2022/09/07 04:38:07;;;;;;;29.20;16.32;;;;;;;11.87;87.96;100822.63;1748048;81;21577;-69
2022/09/07 04:40:34;;;;;;;30.32;18.42;;;;;;;12.33;85.07;100827.73;1748388;81;21061;-65
2022/09/07 04:43:04;;;;;;;33.78;18.37;;;;;;;12.76;83.37;100814.36;1748156;81;21943;-68
2022/09/07 04:45:31;;;;;;;32.93;17.80;;;;;;;13.26;81.44;100817.90;1748203;81;21069;-68
2022/09/07 04:47:57;;;;;;;32.10;19.55;;;;;;;13.58;79.47;100818.89;1747934;81;21597;-67
2022/09/07 04:50:24;;;;;;;34.83;19.70;;;;;;;13.97;77.84;100820.90;1748282;82;21013;-67
2022/09/07 04:52:50;;;;;;;33.73;18.70;;;;;;;14.27;75.98;100817.92;1748365;82;21029;-68
2022/09/07 04:55:17;;;;;;;37.78;19.25;;;;;;;14.67;74.15;100820.23;1726100;82;21191;-68
2022/09/07 04:57:49;;;;;;;38.28;19.20;;;;;;;15.01;72.27;100811.67;1718164;83;21180;-67
2022/09/07 05:00:16;;;;;;;36.30;19.10;;;;;;;15.26;71.40;100815.41;1718312;83;21557;-69
2022/09/07 05:02:42;;;;;;;36.85;18.52;;;;;;;15.57;70.39;100819.77;1718185;83;21093;-68
2022/09/07 05:05:09;;;;;;;30.92;18.87;;;;;;;15.93;69.12;100818.52;1718456;83;21120;-68
2022/09/07 05:07:36;;;;;;;31.60;18.77;;;;;;;16.22;68.09;100818.88;1718265;83;21144;-68
2022/09/07 05:10:03;;;;;;;34.03;18.92;;;;;;;16.41;67.13;100813.05;1718197;83;21085;-68
2022/09/07 05:12:30;;;;;;;38.78;18.80;;;;;;;16.58;66.62;100810.86;1718272;83;21052;-68
2022/09/07 05:14:56;;;;;;;37.98;18.95;;;;;;;16.91;65.46;100800.31;1718381;83;21057;-68
2022/09/07 05:17:23;;;;;;;37.88;18.48;;;;;;;17.43;64.22;100810.42;1718686;83;21108;-68
2022/09/07 05:19:49;;;;;;;32.28;17.75;;;;;;;17.79;62.90;100801.72;1718199;83;21310;-67
2022/09/07 05:22:16;;;;;;;33.60;16.10;;;;;;;18.17;56.63;100808.01;1718555;83;21101;-69
2022/09/07 05:24:45;;;;;;;32.30;17.27;;;;;;;18.44;55.27;100795.35;1718353;83;21080;-68
2022/09/07 05:27:11;;;;;;;33.23;15.48;;;;;;;18.79;54.37;100792.41;1718567;83;21033;-66
2022/09/07 05:29:38;;;;;;;26.12;14.85;;;;;;;19.18;48.31;100794.42;1718234;83;21049;-68
2022/09/07 05:32:05;;;;;;;32.93;15.05;;;;;;;19.46;46.88;100785.55;1718226;83;21828;-68
2022/09/07 05:34:31;;;;;;;22.67;11.43;;;;;;;19.70;45.81;100792.98;1718175;83;21007;-68
2022/09/07 05:36:59;;;;;;;13.60;9.38;;;;;;;19.70;43.80;100800.99;1718216;83;21081;-67
2022/09/07 05:39:25;;;;;;;13.13;9.08;;;;;;;19.65;41.85;100796.40;1718040;83;21033;-67
2022/09/07 05:41:54;;;;;;;12.95;8.08;;;;;;;19.77;41.35;100802.31;1718344;83;21092;-69
2022/09/07 05:44:21;;;;;;;14.93;7.75;;;;;;;19.84;39.69;100803.62;1718262;83;21760;-70
2022/09/07 05:46:51;;;;;;;12.95;7.55;;;;;;;19.90;38.67;100795.21;1718276;83;21053;-68
2022/09/07 05:49:17;;;;;;;10.50;6.62;;;;;;;20.24;39.15;100798.30;1718598;83;21108;-68
2022/09/07 05:51:44;;;;;;;14.83;7.55;;;;;;;20.65;38.05;100792.49;1718419;83;21402;-68
2022/09/07 05:54:10;;;;;;;11.18;6.47;;;;;;;20.98;37.54;100786.63;1718619;83;21044;-68
2022/09/07 05:56:37;;;;;;;12.63;6.15;;;;;;;21.34;34.65;100788.98;1718302;83;21127;-67
2022/09/07 05:59:03;;;;;;;10.38;6.25;;;;;;;21.48;34.25;100779.98;1718561;83;21061;-67
2022/09/07 06:01:30;;;;;;;9.33;5.53;;;;;;;21.56;34.97;100789.19;1718414;83;21605;-68
2022/09/07 06:03:57;;;;;;;8.98;6.35;;;;;;;21.81;33.57;100782.04;1718423;83;21045;-67
2022/09/07 06:06:23;;;;;;;12.73;7.85;;;;;;;21.82;33.57;100783.73;1718614;83;21057;-68
2022/09/07 06:08:52;;;;;;;9.08;5.92;;;;;;;21.89;33.91;100779.63;1718167;83;21143;-68
2022/09/07 06:11:24;;;;;;;9.25;5.60;;;;;;;22.24;33.80;100786.89;1718205;83;21017;-69
2022/09/07 06:13:51;;;;;;;9.33;4.83;;;;;;;22.56;32.49;100787.11;1718182;83;21772;-68
2022/09/07 06:16:18;;;;;;;10.05;5.20;;;;;;;22.83;32.22;100782.78;1718251;83;21033;-68
2022/09/07 06:18:48;;;;;;;10.63;4.75;;;;;;;23.13;31.48;100789.43;1718316;83;21045;-67
2022/09/07 06:21:19;;;;;;;7.85;5.00;;;;;;;23.36;31.29;100789.44;1718429;83;21240;-68
2022/09/07 06:23:46;;;;;;;7.62;4.60;;;;;;;23.54;31.03;100792.48;1718351;83;21045;-67
2022/09/07 06:26:15;;;;;;;6.78;4.37;;;;;;;23.64;30.17;100792.92;1718387;83;20998;-68
2022/09/07 06:28:44;;;;;;;8.03;4.03;;;;;;;23.83;29.48;100794.14;1718191;83;21038;-69
2022/09/07 06:31:15;;;;;;;7.58;4.30;;;;;;;23.86;28.15;100796.59;1718589;83;21092;-68
2022/09/07 06:33:43;;;;;;;7.30;4.22;;;;;;;23.69;28.29;100789.02;1718062;83;21033;-67
2022/09/07 06:36:16;;;;;;;6.17;4.35;;;;;;;23.60;29.37;100788.80;1718576;83;21550;-68
2022/09/07 06:38:43;;;;;;;6.35;4.35;;;;;;;23.71;28.99;100789.75;1717511;83;21093;-68
2022/09/07 06:41:13;;;;;;;6.35;4.00;;;;;;;23.70;28.89;100790.74;1718306;83;21074;-68
2022/09/07 06:43:40;;;;;;;7.90;5.10;;;;;;;23.65;28.86;100800.03;1718254;83;21068;-70
2022/09/07 06:46:06;;;;;;;8.25;4.55;;;;;;;23.54;29.21;100804.08;1718727;83;21182;-69
2022/09/07 06:48:33;;;;;;;7.35;4.50;;;;;;;23.68;29.67;100803.45;1718199;83;21537;-69
2022/09/07 06:51:18;;;;;;;8.70;4.53;;;;;;;23.81;29.23;100809.55;1718758;83;21081;-68
2022/09/07 06:53:46;;;;;;;11.38;4.37;;;;;;;23.78;29.13;100804.43;1721136;82;21077;-68
2022/09/07 06:56:15;;;;;;;9.53;4.70;;;;;;;23.91;29.17;100803.79;1748587;82;21017;-68
2022/09/07 06:58:42;;;;;;;6.35;4.17;;;;;;;24.25;29.08;100807.72;1747948;82;21910;-68
2022/09/07 07:01:15;;;;;;;7.42;4.37;;;;;;;24.63;28.33;100803.13;1748123;82;21065;-67
2022/09/07 07:03:42;;;;;;;6.42;4.28;;;;;;;24.95;27.96;100808.09;1747748;81;21081;-68
2022/09/07 07:06:09;;;;;;;5.70;3.15;;;;;;;25.28;27.61;100797.09;1748123;82;21033;-69
2022/09/07 07:08:35;;;;;;;4.67;2.80;;;;;;;25.68;26.57;100796.20;1747789;82;21116;-69
2022/09/07 07:11:06;;;;;;;3.83;2.33;;;;;;;25.90;25.44;100794.28;1748043;82;21220;-70
2022/09/07 07:13:34;;;;;;;3.12;1.85;;;;;;;25.52;23.76;100797.23;1747978;82;21151;-69
2022/09/07 07:16:09;;;;;;;2.58;2.00;;;;;;;25.52;23.76;100797.23;1748112;82;21544;-68
2022/09/07 07:18:35;;;;;;;5.42;2.55;;;;;;;25.01;24.43;100806.22;1748039;82;21022;-69
2022/09/07 07:21:06;;;;;;;2.95;1.98;;;;;;;24.99;25.03;100806.84;1748629;82;21081;-69
2022/09/07 07:23:33;;;;;;;5.62;2.10;;;;;;;25.21;24.70;100809.38;1748202;82;21091;-68
2022/09/07 07:26:04;;;;;;;3.40;2.20;;;;;;;25.41;24.67;100806.77;1747937;82;21522;-69
2022/09/07 07:28:32;;;;;;;5.12;1.90;;;;;;;25.68;24.69;100799.41;1747747;81;21033;-68
2022/09/07 07:31:01;;;;;;;3.98;2.00;;;;;;;25.87;24.18;100798.62;1748090;82;21069;-68
2022/09/07 07:33:34;;;;;;;4.95;1.87;;;;;;;25.94;23.80;100795.20;1747740;82;21162;-69
2022/09/07 07:36:16;;;;;;;2.98;2.00;;;;;;;26.26;23.77;100791.90;1748085;82;21107;-68
2022/09/07 07:38:46;;;;;;;4.30;2.00;;;;;;;26.72;23.38;100790.31;1747659;82;20985;-68
2022/09/07 07:41:13;;;;;;;3.65;1.65;;;;;;;26.32;22.21;100788.64;1748025;82;21564;-69
2022/09/07 07:43:40;;;;;;;3.95;1.55;;;;;;;26.03;22.13;100784.58;1747721;82;21491;-67
2022/09/07 07:46:07;;;;;;;3.35;1.80;;;;;;;25.91;22.44;100777.96;1747851;82;21034;-68
2022/09/07 07:48:34;;;;;;;2.62;1.47;;;;;;;25.92;22.72;100781.50;1747710;82;22121;-69
2022/09/07 07:51:06;;;;;;;6.17;1.60;;;;;;;26.05;22.49;100779.39;1747883;82;21032;-69
2022/09/07 07:53:35;;;;;;;4.33;1.40;;;;;;;26.27;22.69;100777.39;1748181;82;21049;-67
2022/09/07 07:56:03;;;;;;;4.03;1.77;;;;;;;26.52;21.79;100774.09;1747930;82;21603;-69
2022/09/07 07:58:32;;;;;;;3.62;1.60;;;;;;;26.60;21.91;100773.93;1748405;82;21097;-69
2022/09/07 08:01:09;;;;;;;7.12;1.65;;;;;;;26.27;22.35;100770.64;1748219;82;21130;-69
2022/09/07 08:03:38;;;;;;;2.37;1.30;;;;;;;26.07;21.75;100776.06;1748099;82;21405;-68
2022/09/07 08:06:07;;;;;;;2.47;1.67;;;;;;;26.00;22.06;100773.57;1748067;82;21042;-68
2022/09/07 08:08:35;;;;;;;2.22;1.75;;;;;;;26.22;22.33;100770.23;1748252;82;21097;-69
2022/09/07 08:11:07;;;;;;;3.15;2.00;;;;;;;26.63;22.02;100761.47;1748171;81;21006;-68
2022/09/07 08:13:33;;;;;;;2.08;1.10;;;;;;;27.16;22.12;100760.86;1748126;82;21841;-68
2022/09/07 08:16:00;;;;;;;3.60;1.20;;;;;;;27.70;20.55;100760.54;1748330;82;21519;-69
2022/09/07 08:18:27;;;;;;;4.50;1.30;;;;;;;27.86;20.08;100753.59;1748285;82;21317;-67
2022/09/07 08:21:01;;;;;;;2.40;1.25;;;;;;;28.03;19.74;100756.31;1748228;82;21089;-68
2022/09/07 08:23:28;;;;;;;3.33;1.30;;;;;;;28.15;18.36;100762.34;1748110;82;21131;-68
2022/09/07 08:25:57;;;;;;;1.47;0.82;;;;;;;28.00;18.51;100755.80;1720728;82;22195;-69
2022/09/07 08:28:27;;;;;;;1.20;0.90;;;;;;;27.72;18.75;100757.18;1748028;82;21026;-69
2022/09/07 08:30:54;;;;;;;2.40;0.93;;;;;;;27.77;19.18;100748.60;1747922;82;21041;-68
2022/09/07 08:33:21;;;;;;;2.65;0.98;;;;;;;27.83;18.75;100750.19;1748373;82;21002;-69
2022/09/07 08:35:59;;;;;;;2.47;1.17;;;;;;;27.28;18.82;100743.47;1748394;82;21080;-68
2022/09/07 08:38:28;;;;;;;1.95;1.07;;;;;;;26.61;19.59;100744.55;1748344;82;21118;-68
2022/09/07 08:40:54;;;;;;;2.75;1.35;;;;;;;26.62;20.08;100738.14;1720953;82;21568;-68
2022/09/07 08:43:51;;;;;;;3.55;1.20;;;;;;;26.33;20.06;100732.28;1748312;82;21536;-68
2022/09/07 08:46:39;;;;;;;5.83;1.32;;;;;;;26.03;20.97;100730.09;1721879;83;21129;-67
2022/09/07 08:49:26;;;;;;;4.92;1.42;;;;;;;25.69;20.78;100726.92;1745462;82;21046;-68
2022/09/07 08:52:00;;;;;;;2.87;1.30;;;;;;;25.68;20.98;100722.53;1748366;82;21238;-68
2022/09/07 08:54:26;;;;;;;4.15;2.00;;;;;;;25.76;20.73;100722.67;1736875;82;21104;-70
2022/09/07 08:56:55;;;;;;;2.33;1.62;;;;;;;25.94;21.34;100721.51;1718418;83;21038;-68
2022/09/07 08:59:33;;;;;;;2.37;1.50;;;;;;;25.86;21.25;100715.92;1718543;83;21020;-68
2022/09/07 09:01:59;;;;;;;2.47;1.50;;;;;;;25.88;20.88;100722.94;1718205;83;21072;-69
2022/09/07 09:04:27;;;;;;;2.90;1.57;;;;;;;25.86;20.73;100717.27;1691595;83;21207;-68
2022/09/07 09:07:24;;;;;;;3.67;1.60;;;;;;;25.26;21.38;100718.20;1692024;83;21072;-69
2022/09/07 09:10:11;;;;;;;4.37;2.37;;;;;;;24.28;21.78;100726.70;1718435;83;21061;-69
2022/09/07 09:13:00;;;;;;;2.50;1.72;;;;;;;23.63;22.92;100721.33;1707973;83;21089;-69
2022/09/07 09:15:44;;;;;;;5.53;1.90;;;;;;;23.71;23.80;100713.11;1704843;84;21518;-67
2022/09/07 09:30:21;;;;;;;3.02;1.70;;;;;;;25.65;21.97;100690.43;1785210;80;22813;-67
2022/09/07 09:32:51;;;;;;;5.17;2.10;;;;;;;25.48;22.77;100692.83;1762521;81;21050;-68
2022/09/07 09:35:27;;;;;;;3.95;1.50;;;;;;;25.42;22.64;100693.88;1730482;82;21816;-68
2022/09/07 09:37:56;;;;;;;4.45;1.85;;;;;;;25.46;22.22;100692.61;1757106;81;21528;-68
2022/09/07 09:40:32;;;;;;;3.95;1.60;;;;;;;25.57;21.81;100689.80;1756819;81;20984;-67
2022/09/07 09:43:05;;;;;;;3.83;1.80;;;;;;;25.68;22.03;100684.27;1730338;82;21134;-69
2022/09/07 09:45:35;;;;;;;5.03;1.70;;;;;;;25.98;21.22;100685.16;1759421;81;21622;-68
2022/09/07 09:48:06;;;;;;;2.95;1.67;;;;;;;26.16;21.59;100685.28;1730336;82;21202;-67
2022/09/07 09:50:36;;;;;;;6.10;2.37;;;;;;;25.93;21.24;100672.59;1759331;81;21111;-67
2022/09/07 09:53:04;;;;;;;5.23;1.90;;;;;;;25.36;21.96;100679.62;1730484;82;21572;-68
2022/09/07 09:55:36;;;;;;;3.22;1.92;;;;;;;24.91;22.34;100678.17;1759187;81;21094;-68
2022/09/07 09:58:30;;;;;;;4.35;1.80;;;;;;;24.58;23.62;100670.74;1729931;82;21659;-67
2022/09/07 10:01:03;;;;;;;4.67;1.70;;;;;;;24.43;22.39;100678.30;1759280;81;21139;-69
2022/09/07 10:03:32;;;;;;;12.70;2.15;;;;;;;24.21;22.96;100670.36;1729772;82;21136;-68
2022/09/07 10:06:03;;;;;;;9.63;1.90;;;;;;;23.85;22.74;100678.72;1759321;81;21627;-68
2022/09/07 10:08:31;;;;;;;10.15;2.02;;;;;;;23.86;23.12;100668.84;1759043;81;21016;-67
2022/09/07 10:11:10;;;;;;;3.50;2.08;;;;;;;23.83;23.47;100670.42;1759373;81;21116;-68
2022/09/07 10:13:54;;;;;;;4.17;1.92;;;;;;;23.78;23.89;100665.44;1729819;82;21241;-69
2022/09/07 10:16:38;;;;;;;3.87;1.72;;;;;;;24.08;23.12;100661.13;1759367;81;21012;-70
2022/09/07 10:19:04;;;;;;;11.25;2.15;;;;;;;24.34;22.44;100652.17;1730514;82;21044;-69
2022/09/07 10:21:32;;;;;;;3.40;1.95;;;;;;;23.83;22.64;100660.55;1729647;81;21093;-69
2022/09/07 10:24:11;;;;;;;7.72;1.70;;;;;;;23.63;23.62;100655.95;1721326;83;21024;-67
2022/09/07 10:26:39;;;;;;;3.90;2.02;;;;;;;23.79;23.74;100656.90;1721346;83;21809;-68
2022/09/07 10:29:14;;;;;;;4.35;2.10;;;;;;;24.31;22.76;100656.46;1720912;82;21107;-68
2022/09/07 10:32:11;;;;;;;7.47;2.42;;;;;;;24.79;22.89;100654.53;1720456;83;21044;-68
2022/09/07 10:35:06;;;;;;;7.87;2.30;;;;;;;25.10;21.82;100641.03;1720673;83;21051;-68
2022/09/07 10:37:50;;;;;;;4.85;1.95;;;;;;;25.41;21.50;100638.27;1720722;83;21036;-68
2022/09/07 10:40:40;;;;;;;2.30;1.40;;;;;;;25.82;21.80;100638.48;1720140;82;21433;-69
2022/09/07 10:43:30;;;;;;;6.57;1.70;;;;;;;26.21;20.53;100632.22;1720810;83;22419;-69
2022/09/07 10:46:47;;;;;;;4.05;1.67;;;;;;;26.04;20.34;100625.19;1721049;83;21060;-68
2022/09/07 10:49:24;;;;;;;4.17;1.95;;;;;;;25.20;21.30;100628.45;1720682;83;21087;-69
2022/09/07 10:52:06;;;;;;;4.78;1.90;;;;;;;24.72;21.32;100625.09;1720842;83;21567;-69
2022/09/07 10:54:41;;;;;;;4.37;2.40;;;;;;;24.73;21.84;100624.09;1720697;83;21571;-66
2022/09/07 10:57:42;;;;;;;3.92;2.25;;;;;;;24.91;22.40;100618.44;1720880;83;21067;-68
2022/09/07 11:00:17;;;;;;;5.70;2.75;;;;;;;25.21;22.40;100618.01;1719686;83;21045;-69
2022/09/07 11:03:09;;;;;;;5.35;2.30;;;;;;;25.72;22.52;100612.88;1720465;83;21076;-68
2022/09/07 11:06:10;;;;;;;5.12;2.12;;;;;;;25.83;21.35;100612.34;1720569;83;21052;-68
2022/09/07 11:08:49;;;;;;;5.40;2.40;;;;;;;25.87;21.62;100614.64;1720662;82;21531;-69
2022/09/07 11:11:30;;;;;;;4.12;2.00;;;;;;;25.92;21.03;100606.97;1720655;83;21000;-68
2022/09/07 11:14:06;;;;;;;3.10;1.87;;;;;;;26.11;21.47;100603.39;1720618;82;21044;-68
2022/09/07 11:16:36;;;;;;;3.33;1.42;;;;;;;26.14;20.41;100597.70;1720791;83;21107;-69
2022/09/07 11:19:17;;;;;;;4.90;1.77;;;;;;;26.01;20.58;100603.06;1721061;83;21092;-67
2022/09/07 11:22:06;;;;;;;3.62;1.80;;;;;;;25.70;20.90;100600.52;1720658;82;21118;-67
2022/09/07 11:24:47;;;;;;;4.05;1.75;;;;;;;25.39;21.44;100599.30;1720679;83;22195;-68
2022/09/07 11:27:22;;;;;;;3.27;1.90;;;;;;;24.68;21.16;100584.61;1718692;82;21001;-68
2022/09/07 11:30:07;;;;;;;5.75;2.20;;;;;;;24.07;22.59;100586.30;1680758;84;21205;-68
2022/09/07 11:32:36;;;;;;;8.25;2.55;;;;;;;23.84;22.71;100587.43;1682871;83;21017;-68
2022/09/07 11:35:15;;;;;;;4.17;2.08;;;;;;;23.82;24.05;100576.80;1702344;84;21865;-68
2022/09/07 11:37:45;;;;;;;4.53;1.85;;;;;;;23.95;24.24;100571.69;1711095;83;21065;-68
2022/09/07 11:40:20;;;;;;;;;;;;;;;24.06;24.25;100571.16;1713550;83;21190;-68
2022/09/07 11:43:06;;;;;;;4.05;1.95;;;;;;;24.13;23.79;100571.94;1705624;83;20191;-68
2022/09/07 11:45:48;;;;;;;2.85;1.77;;;;;;;24.27;24.28;100572.45;1710425;83;21663;-67
2022/09/07 11:48:29;;;;;;;3.12;1.92;;;;;;;24.56;22.70;100571.75;1710996;83;21681;-68
2022/09/07 11:50:58;;;;;;;;;;;;;;;24.50;22.40;100564.20;1713482;83;21076;-66
2022/09/07 11:53:32;;;;;;;2.30;1.57;;;;;;;24.38;22.18;100555.34;1711048;83;20246;-68
2022/09/07 11:56:07;;;;;;;4.22;1.70;;;;;;;24.33;22.79;100565.67;1710853;83;21107;-68
2022/09/07 11:58:43;;;;;;;3.02;1.67;;;;;;;24.37;22.47;100561.73;1711157;83;21306;-69
2022/09/07 12:01:53;;;;;;;4.62;1.70;;;;;;;24.38;22.80;100558.03;1710573;83;21258;-69